Share

Abbeville, GA

2:54 AM EDT on April 24, 2014 (GMT -0400)
Abbeville, GA (KGAABBEV4) Elev 253 ft | 32.00 °N, 83.32 °W | Change Station
Active Advisory: Flood Warning

Current weather conditions updated 15 minutes ago

Scattered Clouds
Scattered Clouds
53.6 °F
Feels Like 53.6 °F
N
0.0
Wind Variable Wind from NE
Sunrise 6:54 AM
Sunset 8:08 PM
Moon Waning Crescent

Today is forecast to be nearly the same temperature as yesterday.

Pressure 29.96 in
Visibility 0.8 miles
Clouds Scattered Clouds 200 ft
Dew Point 53 °F
Humidity 99%
Rainfall 0.00 in
Snow Depth Not available.
UV 0 out of 16
Pollen 8.30 out of 12
Air Quality Not available.
Flu Activity Sporadic
METAR KEZM 240635Z AUTO 00000KT 3/4SM BR SCT002 12/12 A2996 RMK AO2 T01210121

More Conditions Fewer Conditions

Pressure 29.96 in
Visibility 0.8 miles
Clouds Scattered Clouds 200 ft
Dew Point 53 °F
Humidity 99%
Rainfall 0.00 in
Snow Depth Not available.
UV 0 out of 16
Pollen 8.30 out of 12
Air Quality Not available.
Flu Activity Sporadic
METAR KEZM 240635Z AUTO 00000KT 3/4SM BR SCT002 12/12 A2996 RMK AO2 T01210121

More Conditions Fewer Conditions

10-Day Weather Forecast

Almanac

Astronomy

Apr. 24, 2014 Rise Set
Actual Time 6:54 AM EDT 8:08 PM EDT
Civil Twilight 6:28 AM EDT 8:34 PM EDT
Nautical Twilight 5:58 AM EDT 9:04 PM EDT
Astronomical Twilight 5:26 AM EDT 9:36 PM EDT
Moon 3:46 AM EDT 3:39 PM EDT
Length of Visible Light 14h 05m
Length of Day
13h 14m
Tomorrow will be 1m 46s longer.
Waning Crescent, 28% of the Moon is Illuminated
Today
Waning Crescent
Apr 29
New
May 6
First Quarter
May 14
Full
May 21
Last Quarter

Today's Extremes

State Highs State Lows

Community

  • Stacked
    Stacked
  • clouds approaching Red Sox Nation
    clouds approaching Red Sox Nation
  • Balance
    Balance
  • Nestled In
    Nestled In
  • Stunning Sunrise
    Stunning Sunrise

WunderPhotos

Upload Photos

1,704,569 photos uploaded!

WunderBlogs® & News

Nearby

Snow Depth

Station Depth Elevation
No new snow has been reported.

Coastal Water Temperatures

Place Temperature
No Stations Reporting

Earthquake Activity

City Distance Mag. Time & Date
No recent earthquake activity has been reported nearby.
Minimum magnitude displayed is 2.5.

Nearby Weather Stations

Station Location Temp. Dew Point Humidity Wind Precip. Elev Updated Type
Abbeville, GA, Abbeville, GA 53.6 °F 53 °F 99% NE  at  0.0 mph - / hr 253 ft 2:39 AM EDT Normal
SW of Chauncey, Chauncey, GA 56.7 °F 38 °F 50% SSW  at  0.0 mph 0.00 in / hr 367 ft 2:54 AM EDT Rapid Fire
Eastman, Eastman, GA 53.4 °F 52 °F 95% WSW  at  0.0 mph - / hr 381 ft 2:45 AM EDT Normal

Show More Stations Show Fewer Stations

What do you think?

We're not finished. Please let us know what you like, what you don't like, and what you are still missing.